createdAt,value
2017-06-30T00:00:45.018Z,79.10
2017-06-30T00:03:12.582Z,79.60
2017-06-30T00:05:40.039Z,82.00
2017-06-30T00:08:07.498Z,81.90
2017-06-30T00:10:35.046Z,81.00
2017-06-30T00:13:02.503Z,83.70
2017-06-30T00:15:29.966Z,81.70
2017-06-30T00:17:57.427Z,83.20
2017-06-30T00:20:24.980Z,81.60
2017-06-30T00:22:52.442Z,84.80
2017-06-30T00:25:19.907Z,84.20
2017-06-30T00:27:48.137Z,84.00
2017-06-30T00:30:15.626Z,83.90
2017-06-30T00:32:43.086Z,83.40
2017-06-30T00:35:10.550Z,83.00
2017-06-30T00:37:38.833Z,84.80
2017-06-30T00:40:07.055Z,86.60
2017-06-30T00:42:34.546Z,86.50
2017-06-30T00:45:02.011Z,84.80
2017-06-30T00:47:30.251Z,86.20
2017-06-30T00:49:57.714Z,85.30
2017-06-30T00:52:25.173Z,85.50
2017-06-30T00:54:52.630Z,84.80
2017-06-30T00:57:20.100Z,84.20
2017-06-30T00:59:47.558Z,84.80
2017-06-30T01:02:15.023Z,83.30
2017-06-30T01:04:42.478Z,83.30
2017-06-30T01:07:10.750Z,82.90
2017-06-30T01:09:38.209Z,82.90
2017-06-30T01:12:05.760Z,84.00
2017-06-30T01:14:33.225Z,83.80
2017-06-30T01:17:00.692Z,85.10
2017-06-30T01:19:28.927Z,85.20
2017-06-30T01:21:56.384Z,85.10
2017-06-30T01:24:23.848Z,85.50
2017-06-30T01:26:51.855Z,85.10
2017-06-30T01:29:19.386Z,85.30
2017-06-30T01:31:46.843Z,85.00
2017-06-30T01:34:14.298Z,85.80
2017-06-30T01:36:41.761Z,87.50
2017-06-30T01:39:09.210Z,85.80
2017-06-30T01:41:36.678Z,87.50
2017-06-30T01:44:04.130Z,87.80
2017-06-30T01:46:31.675Z,85.90
2017-06-30T01:48:59.243Z,87.00
2017-06-30T01:51:26.792Z,87.40
2017-06-30T01:53:54.246Z,87.90
2017-06-30T01:56:21.815Z,87.30
2017-06-30T01:58:49.270Z,89.50
2017-06-30T02:01:16.740Z,90.20
2017-06-30T02:03:44.961Z,89.40
2017-06-30T02:06:12.435Z,89.30
2017-06-30T02:08:39.904Z,90.10
2017-06-30T02:11:07.361Z,87.10
2017-06-30T02:13:34.822Z,87.20
2017-06-30T02:16:02.326Z,87.90
2017-06-30T02:18:29.800Z,89.30
2017-06-30T02:20:57.269Z,88.70
2017-06-30T02:23:24.755Z,88.80
2017-06-30T02:25:52.231Z,87.60
2017-06-30T02:28:20.458Z,88.10
2017-06-30T02:30:47.927Z,87.80
2017-06-30T02:33:15.406Z,87.60
2017-06-30T02:35:42.863Z,87.00
2017-06-30T02:38:11.096Z,87.00
2017-06-30T02:40:38.560Z,87.00
2017-06-30T02:43:06.042Z,87.10
2017-06-30T02:45:33.510Z,87.40
2017-06-30T02:48:01.732Z,87.00
2017-06-30T02:50:29.190Z,86.40
2017-06-30T02:52:56.651Z,87.50
2017-06-30T02:55:24.139Z,87.30
2017-06-30T02:57:51.712Z,86.70
2017-06-30T03:00:19.170Z,87.30
2017-06-30T03:02:47.394Z,88.40
2017-06-30T03:05:14.859Z,88.30
2017-06-30T03:07:42.345Z,88.40
2017-06-30T03:10:09.808Z,88.90
2017-06-30T03:12:38.034Z,90.50
2017-06-30T03:15:05.544Z,90.20
2017-06-30T03:17:33.771Z,90.20
2017-06-30T03:20:01.222Z,90.50
2017-06-30T03:22:28.691Z,90.30
2017-06-30T03:24:56.157Z,90.30
2017-06-30T03:27:23.735Z,90.10
2017-06-30T03:29:51.203Z,90.80
2017-06-30T03:32:19.446Z,90.00
2017-06-30T03:34:46.907Z,90.00
2017-06-30T03:37:14.380Z,89.20
2017-06-30T03:39:41.843Z,89.60
2017-06-30T03:42:09.390Z,88.80
2017-06-30T03:44:36.865Z,87.90
2017-06-30T03:47:05.107Z,88.50
2017-06-30T03:49:32.670Z,88.00
2017-06-30T03:52:00.124Z,87.40
2017-06-30T03:54:27.595Z,87.00
2017-06-30T03:56:55.058Z,86.80
2017-06-30T03:59:22.523Z,84.60
2017-06-30T04:01:50.752Z,84.70
2017-06-30T04:04:18.215Z,84.60
2017-06-30T04:06:45.686Z,84.50
2017-06-30T04:09:13.183Z,84.60
2017-06-30T04:11:40.642Z,83.10
2017-06-30T04:14:08.099Z,84.40
2017-06-30T04:16:35.619Z,84.40
2017-06-30T04:19:03.078Z,84.40
2017-06-30T04:21:30.548Z,84.50
2017-06-30T04:23:58.776Z,84.50
2017-06-30T04:26:26.251Z,85.00
2017-06-30T04:28:53.702Z,83.60
2017-06-30T07:32:36.875Z,57.60
2017-06-30T07:35:04.337Z,59.10
2017-06-30T07:37:31.809Z,58.90
2017-06-30T07:39:59.257Z,57.90
2017-06-30T07:42:26.818Z,59.30
2017-06-30T07:44:54.270Z,59.70
2017-06-30T07:47:21.729Z,57.30
2017-06-30T07:49:49.198Z,55.80
2017-06-30T07:52:17.423Z,55.80
2017-06-30T07:54:44.897Z,55.90
2017-06-30T07:57:12.353Z,57.60
2017-06-30T07:59:39.819Z,55.20
2017-06-30T08:02:07.286Z,53.80
2017-06-30T08:04:34.753Z,53.30
2017-06-30T08:07:02.976Z,54.90
2017-06-30T08:09:30.438Z,54.90
2017-06-30T08:11:57.901Z,53.30
2017-06-30T08:14:25.350Z,53.70
2017-06-30T08:16:52.841Z,53.20
2017-06-30T08:19:20.398Z,52.90
2017-06-30T08:21:47.856Z,52.50
2017-06-30T08:24:15.311Z,53.00
2017-06-30T08:26:42.770Z,50.50
2017-06-30T08:29:10.229Z,52.60
2017-06-30T08:31:37.702Z,50.40
2017-06-30T08:34:05.928Z,51.90
2017-06-30T08:36:33.389Z,51.80
2017-06-30T08:39:00.866Z,51.70
2017-06-30T08:41:28.426Z,51.60
2017-06-30T08:43:55.885Z,53.00
2017-06-30T08:46:23.342Z,50.70
2017-06-30T08:48:50.809Z,50.90
2017-06-30T08:51:19.030Z,51.80
2017-06-30T08:53:46.505Z,51.70
2017-06-30T08:56:13.959Z,51.90
2017-06-30T08:58:41.417Z,52.70
2017-06-30T09:01:08.885Z,52.90
2017-06-30T09:03:36.345Z,51.20
2017-06-30T09:06:03.808Z,52.50
2017-06-30T09:08:31.263Z,52.00
2017-06-30T09:10:58.719Z,53.60
2017-06-30T09:13:26.179Z,53.40
2017-06-30T09:15:53.734Z,53.60
2017-06-30T09:18:21.191Z,54.80
2017-06-30T09:20:48.749Z,53.50
2017-06-30T09:23:16.198Z,53.50
2017-06-30T09:25:43.754Z,51.00
2017-06-30T09:28:11.212Z,50.90
2017-06-30T09:30:38.775Z,49.30
2017-06-30T09:33:06.242Z,48.20
2017-06-30T09:35:33.794Z,48.90
2017-06-30T09:38:01.251Z,50.30
2017-06-30T09:40:28.800Z,48.50
2017-06-30T09:42:56.262Z,49.10
2017-06-30T09:45:23.719Z,48.50
2017-06-30T09:47:51.270Z,47.20
2017-06-30T09:50:18.732Z,46.90
2017-06-30T09:52:46.201Z,45.60
2017-06-30T09:55:13.662Z,46.60
2017-06-30T09:57:41.206Z,46.20
2017-06-30T10:00:08.662Z,46.40
2017-06-30T10:02:36.118Z,46.00
2017-06-30T10:05:03.586Z,46.30
2017-06-30T10:07:31.042Z,45.50
2017-06-30T10:09:58.506Z,45.10
2017-06-30T10:12:26.724Z,45.50
2017-06-30T10:14:54.187Z,45.40
2017-06-30T10:17:21.662Z,45.50
2017-06-30T10:19:49.123Z,46.00
2017-06-30T10:22:16.685Z,44.70
2017-06-30T10:24:44.138Z,45.50
2017-06-30T10:27:11.598Z,45.30
2017-06-30T10:29:39.051Z,45.50
2017-06-30T10:32:06.518Z,45.90
2017-06-30T10:34:34.066Z,46.10
2017-06-30T10:37:01.538Z,44.00
2017-06-30T10:39:29.761Z,46.10
2017-06-30T10:41:57.258Z,45.80
2017-06-30T10:44:24.729Z,46.30
2017-06-30T10:46:52.960Z,45.90
2017-06-30T10:49:20.412Z,45.80
2017-06-30T10:51:47.900Z,44.20
2017-06-30T10:54:15.366Z,44.40
2017-06-30T10:56:42.827Z,43.80
2017-06-30T10:59:10.282Z,45.70
2017-06-30T11:01:38.547Z,45.10
2017-06-30T11:04:06.001Z,44.90
2017-06-30T11:06:33.459Z,44.80
2017-06-30T11:09:00.925Z,45.40
2017-06-30T11:11:28.387Z,44.90
2017-06-30T11:13:56.606Z,45.90
2017-06-30T11:16:24.065Z,45.90
2017-06-30T11:18:51.532Z,46.20
2017-06-30T11:21:18.977Z,43.50
2017-06-30T11:23:46.446Z,45.10
2017-06-30T11:26:13.892Z,44.00
2017-06-30T11:28:41.378Z,43.70
2017-06-30T11:31:08.836Z,49.00
2017-06-30T11:33:36.300Z,45.40
2017-06-30T11:36:03.760Z,44.80
2017-06-30T11:38:31.210Z,45.30
2017-06-30T11:40:58.676Z,47.10
2017-06-30T11:43:26.127Z,44.50
2017-06-30T11:45:53.599Z,43.10
2017-06-30T11:48:21.823Z,44.00
2017-06-30T11:50:49.283Z,44.00
2017-06-30T11:53:16.754Z,41.70
2017-06-30T11:55:44.234Z,42.60
2017-06-30T11:58:12.454Z,42.90
2017-06-30T12:00:39.915Z,42.90
2017-06-30T12:03:07.406Z,43.20
2017-06-30T12:05:34.969Z,44.50
2017-06-30T12:08:02.431Z,44.20
2017-06-30T12:10:30.655Z,45.30
2017-06-30T12:12:58.119Z,45.60
2017-06-30T12:15:25.574Z,45.90
2017-06-30T12:17:53.039Z,44.90
2017-06-30T12:20:20.510Z,45.00
2017-06-30T12:22:48.087Z,44.60
2017-06-30T12:25:15.547Z,42.70
2017-06-30T12:27:43.002Z,44.00
2017-06-30T12:30:11.241Z,43.40
2017-06-30T12:32:38.711Z,43.40
2017-06-30T12:35:06.184Z,45.40
2017-06-30T12:37:33.638Z,46.00
2017-06-30T12:40:01.104Z,46.50
2017-06-30T12:42:28.557Z,43.80
2017-06-30T12:44:56.023Z,43.40
2017-06-30T12:47:24.246Z,44.90
2017-06-30T12:49:51.705Z,44.40
2017-06-30T12:52:19.194Z,44.60
2017-06-30T12:54:46.658Z,45.90
2017-06-30T12:57:14.114Z,44.50
2017-06-30T12:59:41.582Z,45.20
2017-06-30T13:02:09.808Z,47.30
2017-06-30T13:04:37.276Z,47.20
2017-06-30T13:07:04.738Z,45.50
2017-06-30T13:09:32.185Z,44.00
2017-06-30T13:11:59.759Z,42.50
2017-06-30T13:14:27.209Z,43.20
2017-06-30T13:16:54.666Z,41.60
2017-06-30T13:19:22.136Z,40.40
2017-06-30T13:21:49.586Z,43.80
2017-06-30T13:24:17.043Z,43.20
2017-06-30T13:26:44.503Z,42.90
2017-06-30T13:29:12.729Z,41.50
2017-06-30T13:31:40.211Z,41.40
2017-06-30T13:34:07.662Z,45.80
2017-06-30T13:36:35.114Z,45.80
2017-06-30T13:39:02.587Z,45.50
2017-06-30T13:41:30.054Z,42.50
2017-06-30T13:43:57.506Z,42.70
2017-06-30T13:46:24.966Z,42.50
2017-06-30T13:48:52.422Z,41.70
2017-06-30T13:51:19.879Z,43.60
2017-06-30T13:53:47.343Z,43.70
2017-06-30T13:56:14.887Z,43.00
2017-06-30T13:58:42.350Z,40.30
2017-06-30T14:01:09.804Z,40.40
2017-06-30T14:03:37.364Z,40.20
2017-06-30T14:06:04.825Z,39.50
2017-06-30T14:08:32.278Z,40.20
2017-06-30T14:10:59.747Z,40.30
2017-06-30T14:13:27.976Z,42.30
2017-06-30T14:15:55.443Z,42.20
2017-06-30T14:18:22.909Z,40.30
2017-06-30T14:20:50.479Z,41.90
2017-06-30T14:23:17.940Z,42.60
2017-06-30T14:25:45.407Z,42.00
2017-06-30T14:28:13.667Z,45.50
2017-06-30T14:30:41.136Z,45.10
2017-06-30T14:33:09.369Z,43.20
2017-06-30T14:35:36.857Z,43.60
2017-06-30T14:38:04.323Z,39.90
2017-06-30T14:40:31.772Z,41.90
2017-06-30T14:42:59.323Z,39.80
2017-06-30T14:45:26.771Z,40.00
2017-06-30T14:47:54.239Z,41.80
2017-06-30T14:50:21.694Z,44.70
2017-06-30T14:52:49.158Z,39.50
2017-06-30T14:55:16.614Z,40.70
2017-06-30T14:57:44.083Z,39.60
2017-06-30T15:00:12.302Z,39.90
2017-06-30T15:02:39.766Z,39.90
2017-06-30T15:05:07.223Z,39.40
2017-06-30T15:07:34.711Z,40.60
2017-06-30T15:10:02.170Z,38.90
2017-06-30T15:12:29.634Z,37.30
2017-06-30T15:14:57.868Z,39.00
2017-06-30T15:17:25.322Z,38.80
2017-06-30T15:19:52.790Z,37.00
2017-06-30T15:22:20.239Z,37.50
2017-06-30T15:24:47.707Z,37.00
2017-06-30T15:27:15.160Z,35.90
2017-06-30T15:29:42.623Z,36.30
2017-06-30T15:32:10.070Z,37.10
2017-06-30T15:34:37.546Z,38.20
2017-06-30T15:37:05.098Z,38.10
2017-06-30T15:39:32.560Z,36.60
2017-06-30T15:42:00.128Z,38.00
2017-06-30T15:44:27.581Z,36.90
2017-06-30T15:46:55.047Z,38.20
2017-06-30T15:49:23.301Z,38.60
2017-06-30T15:51:50.864Z,37.90
2017-06-30T15:54:18.319Z,38.10
2017-06-30T15:56:45.781Z,37.40
2017-06-30T15:59:13.330Z,36.00
2017-06-30T16:01:40.817Z,37.30
2017-06-30T16:04:09.030Z,37.40
2017-06-30T16:06:36.487Z,37.40
2017-06-30T16:09:03.954Z,35.70
2017-06-30T16:11:31.402Z,36.20
2017-06-30T16:13:58.875Z,38.00
2017-06-30T16:16:26.329Z,37.40
2017-06-30T16:18:53.800Z,37.30
2017-06-30T16:21:21.263Z,37.30
2017-06-30T16:23:48.736Z,38.40
2017-06-30T16:26:16.959Z,39.70
2017-06-30T16:28:44.442Z,39.60
2017-06-30T16:31:11.919Z,39.30
2017-06-30T16:33:40.138Z,38.90
2017-06-30T16:36:07.598Z,38.70
2017-06-30T16:38:35.051Z,40.50
2017-06-30T16:41:02.510Z,39.10
2017-06-30T16:43:29.960Z,40.70
2017-06-30T16:45:57.428Z,40.00
2017-06-30T16:48:24.887Z,41.20
2017-06-30T16:50:52.471Z,41.30
2017-06-30T16:53:19.929Z,41.30
2017-06-30T16:55:47.382Z,43.30
2017-06-30T16:58:14.862Z,42.80
2017-06-30T17:00:42.307Z,43.50
2017-06-30T17:03:09.762Z,44.20
2017-06-30T17:05:37.224Z,44.10
2017-06-30T17:08:05.450Z,46.20
2017-06-30T17:10:32.920Z,46.20
2017-06-30T17:13:00.378Z,47.40
2017-06-30T17:15:27.844Z,47.30
2017-06-30T17:17:55.314Z,47.80
2017-06-30T17:20:22.766Z,47.50
2017-06-30T17:22:50.222Z,48.00
2017-06-30T17:25:17.687Z,48.70
2017-06-30T17:27:45.142Z,49.20
2017-06-30T17:30:12.607Z,48.00
2017-06-30T17:32:40.834Z,48.10
2017-06-30T17:35:08.328Z,48.00
2017-06-30T17:37:35.787Z,48.20
2017-06-30T17:40:03.243Z,49.10
2017-06-30T17:42:30.792Z,48.70
2017-06-30T17:44:58.271Z,50.70
2017-06-30T17:47:26.494Z,51.00
2017-06-30T17:49:53.956Z,50.90
2017-06-30T17:52:21.537Z,49.80
2017-06-30T17:54:48.990Z,49.20
2017-06-30T17:57:16.546Z,51.00
2017-06-30T17:59:44.000Z,52.10
2017-06-30T18:02:11.459Z,51.50
2017-06-30T18:04:38.920Z,50.40
2017-06-30T18:07:06.382Z,50.60
2017-06-30T18:09:33.843Z,50.40
2017-06-30T18:12:01.386Z,49.50
2017-06-30T18:14:28.842Z,49.50
2017-06-30T18:16:56.294Z,48.90
2017-06-30T18:19:23.758Z,49.90
2017-06-30T18:21:51.219Z,50.00
2017-06-30T18:24:18.676Z,50.20
2017-06-30T18:26:46.131Z,51.20
2017-06-30T18:29:13.688Z,52.30
2017-06-30T18:31:41.143Z,53.00
2017-06-30T18:34:08.707Z,53.60
2017-06-30T18:36:36.155Z,54.10
2017-06-30T18:39:03.610Z,54.10
2017-06-30T18:41:31.079Z,55.40
2017-06-30T18:43:58.535Z,55.80
2017-06-30T18:46:25.994Z,55.70
2017-06-30T18:48:54.219Z,56.10
2017-06-30T18:51:21.678Z,56.00
2017-06-30T18:53:49.147Z,56.10
2017-06-30T18:56:16.622Z,56.00
2017-06-30T18:58:44.085Z,56.10
2017-06-30T19:01:11.539Z,56.60
2017-06-30T19:03:39.007Z,56.90
2017-06-30T19:06:06.470Z,57.50
2017-06-30T19:08:34.699Z,58.70
2017-06-30T19:11:02.177Z,58.60
2017-06-30T19:13:29.739Z,59.30
2017-06-30T19:15:57.195Z,59.30
2017-06-30T19:18:24.669Z,61.80
2017-06-30T19:20:52.118Z,59.50
2017-06-30T19:23:20.376Z,61.50
2017-06-30T19:25:47.832Z,61.50
2017-06-30T19:28:15.298Z,63.20
2017-06-30T19:30:42.762Z,62.40
2017-06-30T19:33:10.210Z,63.50
2017-06-30T19:35:37.734Z,64.70
2017-06-30T19:38:05.222Z,64.10
2017-06-30T19:40:32.691Z,65.70
2017-06-30T19:43:00.139Z,65.60
2017-06-30T19:45:27.610Z,64.30
2017-06-30T19:47:55.829Z,66.00
2017-06-30T19:50:23.316Z,65.30
2017-06-30T19:52:50.781Z,65.50
2017-06-30T19:55:18.341Z,65.20
2017-06-30T19:57:45.796Z,65.10
2017-06-30T20:00:13.249Z,65.50
2017-06-30T20:02:40.723Z,65.30
2017-06-30T20:05:08.947Z,66.40
2017-06-30T20:07:36.410Z,66.40
2017-06-30T20:10:03.874Z,67.10
2017-06-30T20:12:31.351Z,69.20
2017-06-30T20:14:58.907Z,67.50
2017-06-30T20:17:26.385Z,69.50
2017-06-30T20:19:54.627Z,70.00
2017-06-30T20:22:22.090Z,70.10
2017-06-30T20:24:49.556Z,69.40
2017-06-30T20:27:17.110Z,69.40
2017-06-30T20:29:44.565Z,69.40
2017-06-30T20:32:12.027Z,69.50
2017-06-30T20:34:39.503Z,69.00
2017-06-30T20:37:07.743Z,68.70
2017-06-30T20:39:35.318Z,68.70
2017-06-30T20:42:02.778Z,69.30
2017-06-30T20:44:30.246Z,70.20
2017-06-30T20:46:58.510Z,70.70
2017-06-30T20:49:26.734Z,72.00
2017-06-30T20:51:54.200Z,71.00
2017-06-30T20:54:21.677Z,71.80
2017-06-30T20:56:49.121Z,72.40
2017-06-30T20:59:16.611Z,72.80
2017-06-30T21:01:44.875Z,74.40
2017-06-30T21:04:12.338Z,74.30
2017-06-30T21:06:39.807Z,74.20
2017-06-30T21:09:07.353Z,73.30
2017-06-30T21:11:34.826Z,74.30
2017-06-30T21:14:03.084Z,73.90
2017-06-30T21:16:30.550Z,73.90
2017-06-30T21:18:58.770Z,74.20
2017-06-30T21:21:26.237Z,74.20
2017-06-30T21:23:53.687Z,73.30
2017-06-30T21:26:21.150Z,72.40
2017-06-30T21:28:48.635Z,72.40
2017-06-30T21:31:16.194Z,72.10
2017-06-30T21:33:43.674Z,71.00
2017-06-30T21:36:11.130Z,70.10
2017-06-30T21:38:38.662Z,70.00
2017-06-30T21:41:06.123Z,69.30
2017-06-30T21:43:33.674Z,69.10
2017-06-30T21:46:01.139Z,68.60
2017-06-30T21:48:28.618Z,69.00
2017-06-30T21:50:56.833Z,68.40
2017-06-30T21:53:24.307Z,68.40
2017-06-30T21:55:51.761Z,67.70
2017-06-30T21:58:19.219Z,68.90
2017-06-30T22:02:42.382Z,70.50
2017-06-30T22:05:09.851Z,70.40
2017-06-30T22:07:37.309Z,70.10
2017-06-30T22:10:04.767Z,70.30
2017-06-30T22:12:32.223Z,72.90
2017-06-30T22:14:59.785Z,70.50
2017-06-30T22:17:27.247Z,72.30
2017-06-30T22:19:54.707Z,71.20
2017-06-30T22:22:22.934Z,71.80
2017-06-30T22:24:50.442Z,71.00
2017-06-30T22:27:18.662Z,73.20
2017-06-30T22:29:46.125Z,72.60
2017-06-30T22:32:13.611Z,72.00
2017-06-30T22:34:41.075Z,72.80
2017-06-30T22:37:08.631Z,72.10
2017-06-30T22:39:36.092Z,71.30
2017-06-30T22:42:03.559Z,71.40
2017-06-30T22:44:31.786Z,68.90
2017-06-30T22:46:59.279Z,68.90
2017-06-30T22:49:26.741Z,69.00
2017-06-30T22:51:54.212Z,69.60
2017-06-30T22:54:22.439Z,68.90
2017-06-30T22:56:50.015Z,68.90
2017-06-30T22:59:17.476Z,69.80
2017-06-30T23:01:44.935Z,69.40
2017-06-30T23:04:12.494Z,70.40
2017-06-30T23:06:40.050Z,70.10
2017-06-30T23:09:07.510Z,69.40
2017-06-30T23:11:34.979Z,68.60
2017-06-30T23:14:03.239Z,69.40
2017-06-30T23:16:30.698Z,68.60
2017-06-30T23:18:58.162Z,69.00
2017-06-30T23:21:26.402Z,69.70
2017-06-30T23:23:53.880Z,69.80
2017-06-30T23:26:21.338Z,69.70
2017-06-30T23:28:48.794Z,69.70
2017-06-30T23:31:16.258Z,70.80
2017-06-30T23:33:44.491Z,73.20
2017-06-30T23:36:11.966Z,72.30
2017-06-30T23:38:39.439Z,72.50
2017-06-30T23:41:06.903Z,72.50
2017-06-30T23:43:34.363Z,72.70
2017-06-30T23:46:02.631Z,74.20
2017-06-30T23:48:30.077Z,74.20
2017-06-30T23:50:57.547Z,75.00
2017-06-30T23:53:25.007Z,75.10
2017-06-30T23:55:53.240Z,77.80
2017-06-30T23:58:20.698Z,77.90
